Airfield :
LOGIN :

Register | Disclaimer

   EN    FR    IT 

 










Legend :    VFR   Marginal VFR   IFR   Intensive IFR   Very Intensive IFR
Visi :
Ceiling :
>= 8 km
>= 3000ft
5 to 8 km
1000 to 3000 ft
1500m to 5 km
500 to 1000 ft
800 to 1500m
200 to 500 ft
< 800m
< 200 ft
Symbols :   Thunderstorms  Fog  Heavy snow  Heavy precipitations  Wind > 20 kt
SIGMETs :     Misc.  Thunderstorms  Icing  Turbulence  Mountain Waves  Volcanic Ashes






- Airport Elevation : 218 ft
- IATA code : LBG


LFPB - Paris / Le Bourget

CURRENT METAR :
  • 161830Z AUTO 20020G31KT 170V230 9999 -DZ OVC025/// 15/12 Q1007 TEMPO 2000 RA BKN013

EXPIRED METARs :
  • 161800Z AUTO 21026G38KT 180V240 9999 -RADZ BKN030 OVC035 16/11 Q1007 TEMPO 2000 RA BKN013
  • 161730Z AUTO 20024KT 9999 BKN032 BKN039 OVC047 17/11 Q1006 TEMPO 2000 RA BKN013 BECMG 21020G40KT
  • 161700Z AUTO 21026G40KT 9999 OVC034 17/11 Q1006 TEMPO 2000 RA OVC014 BKN030
  • 161630Z AUTO 20025G38KT 9999 OVC038 18/10 Q1006 TEMPO 2000 RA OVC014 BKN030
  • 161600Z AUTO 20023G36KT 9999 OVC038 18/10 Q1006 TEMPO 2000 RA OVC014 BKN030

TAF TAF LFPB
Valid from the 16 at 18:00 until the 17 at 18:00 UTC


161700Z 1618/1718 21020G40KT 9999 BKN020
TEMPO 1618/1621 2000 RA BKN013
BECMG 1621/1623 24020G30KT
BECMG 1702/1704 24012KT SCT025
TEMPO 1704/1707 4000 -SHRA
TEMPO 1712/1718 25015G35KT 3000 SHRA BKN020TCU
ATIS : +33 1 48 62 43 92



MET'MAP, your aeronautical weather chart ! - Copyright ORBIFLY December 2007 - Disclaimer

ORBIFLY MET'MAP TEAM :

Programming & Development : Alexandra Zaïnal
Concept & original design : Baudouin d'Aumeries
Assistance for programming : Marc-Olivier Méhu
Technical & hardware support : Manuel Goepfert

Contact : metmap@orbifly.com




SOURCES & CREDITS :

   NOAA